This is the latest recevied weather packets stored in our database for station/object SQ7FJB-2. If no packets are shown the sender has not sent any weather packets the latest 1 day(s).
| Time | Temp. | Humidity | Pressure | Rain* | Wind** | Luminosity | Snow |
|---|---|---|---|---|---|---|---|
| 1777968274 | 17.78° C | 45% | 1009.2 hPa | 0 mm | 0.89 m/s, 146° | - | - |
| 1777960853 | 17.22° C | 46% | 1009.2 hPa | 0 mm | 0.45 m/s, 251° | - | - |
| 1777960240 | 17.22° C | 46% | 1009.3 hPa | 0 mm | 0.89 m/s, 150° | - | - |
| 1777959628 | 16.67° C | 47% | 1009.2 hPa | 0 mm | 0.45 m/s, 223° | - | - |
| 1777959027 | 16.67° C | 49% | 1009.3 hPa | 0 mm | 0.45 m/s, 176° | - | - |
| 1777958415 | 17.22° C | 49% | 1009.4 hPa | 0 mm | 0 m/s | - | - |
| 1777957815 | 16.11° C | 51% | 1009.3 hPa | 0 mm | 0 m/s | - | - |
| 1777957215 | 16.11° C | 51% | 1009.4 hPa | 0 mm | 0.45 m/s, 181° | - | - |
| 1777956603 | 14.44° C | 57% | 1009.4 hPa | 0 mm | 0 m/s | - | - |
| 1777956002 | 11.67° C | 71% | 1009.4 hPa | 0 mm | 0 m/s | - | - |
| 1777955402 | 11.11° C | 79% | 1009.3 hPa | 0 mm | 0 m/s | - | - |
| 1777954790 | 10.56° C | 79% | 1009.3 hPa | 0 mm | 0 m/s | - | - |
| 1777954190 | 9.44° C | 76% | 1009.2 hPa | 0 mm | 0 m/s | - | - |
| 1777953577 | 8.89° C | 82% | 1009.4 hPa | 0 mm | 0 m/s | - | - |
| 1777952965 | 8.89° C | 84% | 1009.4 hPa | 0 mm | 0 m/s | - | - |
| 1777952365 | 8.89° C | 85% | 1009.5 hPa | 0 mm | 0 m/s | - | - |
| 1777951752 | 8.89° C | 85% | 1009.5 hPa | 0 mm | 0 m/s | - | - |
| 1777951152 | 8.89° C | 87% | 1009.5 hPa | 0 mm | 0 m/s | - | - |
| 1777950552 | 8.89° C | 87% | 1009.6 hPa | 0 mm | 0 m/s | - | - |
| 1777949952 | 8.89° C | 86% | 1009.6 hPa | 0 mm | 0 m/s | - | - |
| 1777949340 | 9.44° C | 83% | 1009.5 hPa | 0 mm | 0 m/s | - | - |
| 1777948739 | 8.33° C | 86% | 1009.6 hPa | 0 mm | 0 m/s | - | - |
| 1777948139 | 8.33° C | 86% | 1009.6 hPa | 0 mm | 0 m/s | - | - |
* Rain latest hour (hover to see other rain measurements)
** Current wind speed in m/s (hover to see current wind gust speed)